KCTZ

Clinton-Sampson County Airport

Clinton, North Carolina, USA
METAR KCTZ 191510Z AUTO 25008KT 200V270 10SM OVC018 27/24 A3000 RMK AO2 T02660238
Observed Flight Rules
Aug-19 @ 15:10 UTC (29 minutes ago) Marginal Visual Flight Rules
Wind Visibility Clouds
250° at 8 knots 10 miles
  • Overcast at 1,800' AGL
Temperatures Readings
Current 27°C / 81°F
Dewpoint 24°C / 75°F
Humidity 84%
Altimeter 30" Hg
Pressure 1016 hPa
Elevation 45
METAR KCTZ 191510Z AUTO 25008KT 200V270 10SM OVC018 27/24 A3000 RMK AO2 T02660238
Observed Flight Rules
Aug-19 @ 15:10 UTC
(29 minutes ago)
MVFR
Wind Visibility
250° at 8 knots 10 miles
Clouds
  • Overcast at 1,800' AGL
Temperature Dewpoint
27°C / 81°F 24°C / 75°F
Humidity Altimeter Pressure
84% 30" Hg 1016 hPa